sensor_id;sensor_type;location;lat;lon;timestamp;pressure;altitude;pressure_sealevel;temperature;humidity
19553;BME280;9420;50.876;7.012;2023-05-10T00:00:35;100358.13;;;32.31;59.21
19553;BME280;9420;50.876;7.012;2023-05-10T00:03:02;100360.59;;;31.47;61.75
19553;BME280;9420;50.876;7.012;2023-05-10T00:05:30;100348.00;;;32.25;60.17
19553;BME280;9420;50.876;7.012;2023-05-10T00:07:57;100361.44;;;32.27;59.30
19553;BME280;9420;50.876;7.012;2023-05-10T00:10:26;100360.09;;;32.79;58.75
19553;BME280;9420;50.876;7.012;2023-05-10T00:12:53;100350.22;;;32.36;59.18
19553;BME280;9420;50.876;7.012;2023-05-10T00:15:20;100343.16;;;33.46;58.31
19553;BME280;9420;50.876;7.012;2023-05-10T00:17:47;100351.84;;;33.22;58.62
19553;BME280;9420;50.876;7.012;2023-05-10T00:20:14;100352.91;;;33.55;56.54
19553;BME280;9420;50.876;7.012;2023-05-10T00:22:41;100350.63;;;33.31;57.10
19553;BME280;9420;50.876;7.012;2023-05-10T00:25:09;100356.44;;;32.72;57.81
19553;BME280;9420;50.876;7.012;2023-05-10T00:27:37;100356.34;;;32.59;58.43
19553;BME280;9420;50.876;7.012;2023-05-10T00:30:06;100357.88;;;31.47;60.36
19553;BME280;9420;50.876;7.012;2023-05-10T00:32:35;100347.88;;;33.31;57.96
19553;BME280;9420;50.876;7.012;2023-05-10T00:35:03;100350.88;;;33.36;57.62
19553;BME280;9420;50.876;7.012;2023-05-10T00:37:30;100356.31;;;31.52;60.80
19553;BME280;9420;50.876;7.012;2023-05-10T00:39:57;100355.00;;;31.48;61.54
19553;BME280;9420;50.876;7.012;2023-05-10T00:42:24;100355.53;;;31.73;60.91
19553;BME280;9420;50.876;7.012;2023-05-10T00:44:53;100355.31;;;32.25;60.89
19553;BME280;9420;50.876;7.012;2023-05-10T00:47:20;100355.47;;;31.52;60.80
19553;BME280;9420;50.876;7.012;2023-05-10T00:49:47;100347.19;;;33.16;60.23
19553;BME280;9420;50.876;7.012;2023-05-10T00:52:14;100354.75;;;31.79;60.56
19553;BME280;9420;50.876;7.012;2023-05-10T00:54:42;100344.72;;;34.02;56.50
19553;BME280;9420;50.876;7.012;2023-05-10T00:57:09;100343.59;;;34.70;54.98
19553;BME280;9420;50.876;7.012;2023-05-10T00:59:37;100348.63;;;32.63;58.02
19553;BME280;9420;50.876;7.012;2023-05-10T01:02:06;100349.47;;;33.46;55.51
19553;BME280;9420;50.876;7.012;2023-05-10T01:04:34;100347.19;;;33.16;57.28
19553;BME280;9420;50.876;7.012;2023-05-10T01:07:02;100351.34;;;33.80;56.78
19553;BME280;9420;50.876;7.012;2023-05-10T01:09:29;100355.75;;;32.07;58.65
19553;BME280;9420;50.876;7.012;2023-05-10T01:11:57;100350.63;;;34.12;56.63
19553;BME280;9420;50.876;7.012;2023-05-10T01:14:26;100355.22;;;31.97;59.83
19553;BME280;9420;50.876;7.012;2023-05-10T01:16:54;100358.03;;;31.89;60.74
19553;BME280;9420;50.876;7.012;2023-05-10T01:19:26;100358.47;;;31.57;60.84
19553;BME280;9420;50.876;7.012;2023-05-10T01:22:06;100368.38;;;31.79;60.79
19553;BME280;9420;50.876;7.012;2023-05-10T01:34:32;100344.44;;;35.10;54.34
19553;BME280;9420;50.876;7.012;2023-05-10T01:37:07;100345.88;;;35.26;53.60
19553;BME280;9420;50.876;7.012;2023-05-10T01:39:44;100345.66;;;35.34;53.06
19553;BME280;9420;50.876;7.012;2023-05-10T01:42:17;100347.31;;;35.54;52.27
19553;BME280;9420;50.876;7.012;2023-05-10T01:44:58;100354.06;;;34.47;53.55
19553;BME280;9420;50.876;7.012;2023-05-10T01:47:34;100352.84;;;34.89;53.08
19553;BME280;9420;50.876;7.012;2023-05-10T01:50:10;100346.91;;;35.38;52.46
19553;BME280;9420;50.876;7.012;2023-05-10T01:52:47;100350.28;;;35.33;52.63
19553;BME280;9420;50.876;7.012;2023-05-10T01:55:20;100340.84;;;35.86;51.43
19553;BME280;9420;50.876;7.012;2023-05-10T01:57:56;100346.38;;;36.55;50.38
19553;BME280;9420;50.876;7.012;2023-05-10T02:00:27;100338.00;;;35.68;51.64
19553;BME280;9420;50.876;7.012;2023-05-10T02:02:56;100334.38;;;36.56;49.89
19553;BME280;9420;50.876;7.012;2023-05-10T02:05:26;100346.59;;;35.72;50.87
19553;BME280;9420;50.876;7.012;2023-05-10T02:07:57;100355.69;;;36.54;49.77
19553;BME280;9420;50.876;7.012;2023-05-10T02:10:27;100350.22;;;37.04;48.75
19553;BME280;9420;50.876;7.012;2023-05-10T02:12:58;100348.97;;;37.49;48.41
19553;BME280;9420;50.876;7.012;2023-05-10T02:15:27;100351.53;;;36.70;48.96
19553;BME280;9420;50.876;7.012;2023-05-10T02:17:56;100358.06;;;35.43;50.40
19553;BME280;9420;50.876;7.012;2023-05-10T02:20:27;100354.47;;;36.50;49.25
19553;BME280;9420;50.876;7.012;2023-05-10T02:22:55;100356.38;;;36.75;49.17
19553;BME280;9420;50.876;7.012;2023-05-10T02:25:25;100363.34;;;36.39;49.83
19553;BME280;9420;50.876;7.012;2023-05-10T02:27:56;100355.88;;;37.33;47.98
19553;BME280;9420;50.876;7.012;2023-05-10T02:30:26;100367.38;;;37.24;48.19
19553;BME280;9420;50.876;7.012;2023-05-10T02:32:56;100361.50;;;36.96;48.31
19553;BME280;9420;50.876;7.012;2023-05-10T02:35:28;100364.22;;;35.05;50.96
19553;BME280;9420;50.876;7.012;2023-05-10T02:37:58;100371.31;;;36.54;49.41
19553;BME280;9420;50.876;7.012;2023-05-10T02:40:27;100368.16;;;36.13;49.89
19553;BME280;9420;50.876;7.012;2023-05-10T02:42:56;100359.78;;;36.70;48.75
19553;BME280;9420;50.876;7.012;2023-05-10T02:45:29;100372.78;;;36.81;48.99
19553;BME280;9420;50.876;7.012;2023-05-10T02:47:58;100375.16;;;36.46;49.23
19553;BME280;9420;50.876;7.012;2023-05-10T02:50:28;100374.16;;;37.21;47.97
19553;BME280;9420;50.876;7.012;2023-05-10T02:53:06;100376.16;;;37.32;48.16
19553;BME280;9420;50.876;7.012;2023-05-10T02:55:40;100374.94;;;37.28;47.48
19553;BME280;9420;50.876;7.012;2023-05-10T02:58:09;100380.00;;;36.07;49.82
19553;BME280;9420;50.876;7.012;2023-05-10T03:00:36;100381.09;;;36.37;49.63
19553;BME280;9420;50.876;7.012;2023-05-10T03:03:03;100371.34;;;36.41;49.34
19553;BME280;9420;50.876;7.012;2023-05-10T03:05:32;100370.13;;;36.37;49.27
19553;BME280;9420;50.876;7.012;2023-05-10T03:07:59;100365.75;;;35.78;50.11
19553;BME280;9420;50.876;7.012;2023-05-10T03:10:31;100376.00;;;34.93;51.40
19553;BME280;9420;50.876;7.012;2023-05-10T03:13:13;100368.84;;;35.25;51.20
19553;BME280;9420;50.876;7.012;2023-05-10T03:15:56;100377.88;;;34.86;51.31
19553;BME280;9420;50.876;7.012;2023-05-10T03:18:33;100379.41;;;35.14;50.74
19553;BME280;9420;50.876;7.012;2023-05-10T03:21:10;100381.53;;;34.19;52.83
19553;BME280;9420;50.876;7.012;2023-05-10T03:23:43;100385.00;;;33.53;54.10
19553;BME280;9420;50.876;7.012;2023-05-10T03:26:18;100389.47;;;34.88;52.38
19553;BME280;9420;50.876;7.012;2023-05-10T03:28:49;100389.91;;;33.64;53.65
19553;BME280;9420;50.876;7.012;2023-05-10T03:31:18;100386.97;;;35.19;51.71
19553;BME280;9420;50.876;7.012;2023-05-10T03:33:48;100397.06;;;33.65;54.94
19553;BME280;9420;50.876;7.012;2023-05-10T03:36:17;100398.41;;;33.20;53.69
19553;BME280;9420;50.876;7.012;2023-05-10T03:38:45;100397.47;;;34.96;52.15
19553;BME280;9420;50.876;7.012;2023-05-10T03:41:12;100399.91;;;34.45;52.42
19553;BME280;9420;50.876;7.012;2023-05-10T03:43:39;100404.69;;;35.93;50.90
19553;BME280;9420;50.876;7.012;2023-05-10T03:46:06;100400.69;;;36.03;50.06
19553;BME280;9420;50.876;7.012;2023-05-10T03:48:33;100408.13;;;33.91;53.56
19553;BME280;9420;50.876;7.012;2023-05-10T03:51:00;100403.34;;;34.93;51.77
19553;BME280;9420;50.876;7.012;2023-05-10T03:53:29;100406.72;;;34.95;51.84
19553;BME280;9420;50.876;7.012;2023-05-10T03:55:56;100409.28;;;35.23;51.18
19553;BME280;9420;50.876;7.012;2023-05-10T03:58:23;100405.91;;;33.74;53.18
19553;BME280;9420;50.876;7.012;2023-05-10T04:00:51;100409.69;;;33.73;54.23
19553;BME280;9420;50.876;7.012;2023-05-10T04:03:18;100415.16;;;35.13;52.29
19553;BME280;9420;50.876;7.012;2023-05-10T04:05:45;100405.50;;;35.04;51.06
19553;BME280;9420;50.876;7.012;2023-05-10T04:08:12;100405.91;;;35.27;51.04
19553;BME280;9420;50.876;7.012;2023-05-10T04:10:42;100405.41;;;33.57;54.36
19553;BME280;9420;50.876;7.012;2023-05-10T04:13:09;100401.63;;;33.58;53.62
19553;BME280;9420;50.876;7.012;2023-05-10T04:15:36;100413.03;;;34.76;52.12
19553;BME280;9420;50.876;7.012;2023-05-10T04:18:03;100403.34;;;34.93;51.14
19553;BME280;9420;50.876;7.012;2023-05-10T04:20:32;100406.13;;;34.19;53.09
19553;BME280;9420;50.876;7.012;2023-05-10T04:22:59;100396.16;;;35.57;51.00
19553;BME280;9420;50.876;7.012;2023-05-10T04:25:26;100414.53;;;33.77;54.18
19553;BME280;9420;50.876;7.012;2023-05-10T04:27:55;100407.59;;;33.40;54.87
19553;BME280;9420;50.876;7.012;2023-05-10T04:30:22;100408.88;;;34.19;52.93
19553;BME280;9420;50.876;7.012;2023-05-10T04:32:49;100413.25;;;34.07;51.59
19553;BME280;9420;50.876;7.012;2023-05-10T04:35:16;100408.78;;;34.54;51.82
19553;BME280;9420;50.876;7.012;2023-05-10T04:37:43;100397.44;;;33.62;53.71
19553;BME280;9420;50.876;7.012;2023-05-10T04:40:11;100410.50;;;34.68;52.40
19553;BME280;9420;50.876;7.012;2023-05-10T04:42:40;100406.69;;;33.61;54.07
19553;BME280;9420;50.876;7.012;2023-05-10T04:45:17;100407.44;;;33.83;54.01
19553;BME280;9420;50.876;7.012;2023-05-10T04:47:47;100411.81;;;33.15;55.78
19553;BME280;9420;50.876;7.012;2023-05-10T04:50:14;100414.47;;;34.59;53.40
19553;BME280;9420;50.876;7.012;2023-05-10T04:52:41;100420.59;;;34.80;52.50
19553;BME280;9420;50.876;7.012;2023-05-10T04:55:08;100421.91;;;33.83;54.29
19553;BME280;9420;50.876;7.012;2023-05-10T04:57:35;100426.53;;;32.36;56.91
19553;BME280;9420;50.876;7.012;2023-05-10T05:00:03;100427.53;;;33.41;55.69
19553;BME280;9420;50.876;7.012;2023-05-10T05:02:32;100428.25;;;34.24;53.54
19553;BME280;9420;50.876;7.012;2023-05-10T05:04:59;100432.03;;;33.83;54.98
19553;BME280;9420;50.876;7.012;2023-05-10T05:07:26;100445.91;;;32.12;57.12
19553;BME280;9420;50.876;7.012;2023-05-10T05:09:53;100457.19;;;29.99;62.30
19553;BME280;9420;50.876;7.012;2023-05-10T05:12:20;100453.00;;;32.06;59.00
19553;BME280;9420;50.876;7.012;2023-05-10T05:14:47;100452.69;;;31.87;58.92
19553;BME280;9420;50.876;7.012;2023-05-10T05:17:14;100460.97;;;32.08;59.37
19553;BME280;9420;50.876;7.012;2023-05-10T05:19:43;100461.59;;;31.66;60.26
19553;BME280;9420;50.876;7.012;2023-05-10T05:22:10;100466.06;;;32.32;58.88
19553;BME280;9420;50.876;7.012;2023-05-10T05:24:37;100464.34;;;32.10;58.94
19553;BME280;9420;50.876;7.012;2023-05-10T05:27:04;100472.34;;;30.24;61.88
19553;BME280;9420;50.876;7.012;2023-05-10T05:29:31;100472.25;;;31.01;62.75
19553;BME280;9420;50.876;7.012;2023-05-10T05:31:59;100485.88;;;30.40;62.59
19553;BME280;9420;50.876;7.012;2023-05-10T05:34:26;100472.19;;;32.34;59.17
19553;BME280;9420;50.876;7.012;2023-05-10T05:36:54;100482.44;;;31.22;61.84
19553;BME280;9420;50.876;7.012;2023-05-10T05:39:21;100480.84;;;30.59;61.42
19553;BME280;9420;50.876;7.012;2023-05-10T05:41:49;100484.16;;;30.70;62.99
19553;BME280;9420;50.876;7.012;2023-05-10T05:44:16;100478.34;;;32.57;59.00
19553;BME280;9420;50.876;7.012;2023-05-10T05:46:43;100474.72;;;32.36;58.66
19553;BME280;9420;50.876;7.012;2023-05-10T05:49:10;100485.69;;;33.14;57.55
19553;BME280;9420;50.876;7.012;2023-05-10T05:51:37;100482.94;;;31.92;58.86
19553;BME280;9420;50.876;7.012;2023-05-10T05:54:06;100485.28;;;33.17;56.90
19553;BME280;9420;50.876;7.012;2023-05-10T05:56:33;100481.84;;;33.57;56.14
19553;BME280;9420;50.876;7.012;2023-05-10T05:59:00;100494.19;;;32.18;58.38
19553;BME280;9420;50.876;7.012;2023-05-10T06:01:27;100488.06;;;34.06;54.80
19553;BME280;9420;50.876;7.012;2023-05-10T06:03:54;100504.88;;;33.06;55.86
19553;BME280;9420;50.876;7.012;2023-05-10T06:06:21;100493.63;;;33.57;55.64
19553;BME280;9420;50.876;7.012;2023-05-10T06:08:48;100495.41;;;33.23;57.19
19553;BME280;9420;50.876;7.012;2023-05-10T06:11:17;100502.00;;;32.71;57.77
19553;BME280;9420;50.876;7.012;2023-05-10T06:13:44;100500.59;;;32.75;57.20
19553;BME280;9420;50.876;7.012;2023-05-10T06:16:11;100507.97;;;32.46;55.48
19553;BME280;9420;50.876;7.012;2023-05-10T06:18:38;100513.97;;;32.92;55.52
19553;BME280;9420;50.876;7.012;2023-05-10T06:21:06;100512.75;;;32.58;56.35
19553;BME280;9420;50.876;7.012;2023-05-10T06:23:33;100517.44;;;33.00;55.89
19553;BME280;9420;50.876;7.012;2023-05-10T06:26:00;100511.56;;;33.73;54.33
19553;BME280;9420;50.876;7.012;2023-05-10T06:28:28;100515.59;;;32.50;58.59
19553;BME280;9420;50.876;7.012;2023-05-10T06:30:56;100521.78;;;31.57;59.40
19553;BME280;9420;50.876;7.012;2023-05-10T06:33:24;100520.88;;;33.09;57.14
19553;BME280;9420;50.876;7.012;2023-05-10T06:35:51;100532.66;;;32.73;58.68
19553;BME280;9420;50.876;7.012;2023-05-10T06:38:18;100532.66;;;32.73;58.33
19553;BME280;9420;50.876;7.012;2023-05-10T06:40:45;100534.75;;;32.93;56.75
19553;BME280;9420;50.876;7.012;2023-05-10T06:43:13;100543.19;;;31.14;56.75
19553;BME280;9420;50.876;7.012;2023-05-10T06:45:42;100548.16;;;30.49;59.96
19553;BME280;9420;50.876;7.012;2023-05-10T06:48:09;100550.53;;;30.83;59.69
19553;BME280;9420;50.876;7.012;2023-05-10T06:50:36;100552.84;;;31.17;60.38
19553;BME280;9420;50.876;7.012;2023-05-10T06:53:03;100537.94;;;34.56;54.69
19553;BME280;9420;50.876;7.012;2023-05-10T06:55:30;100550.97;;;31.40;60.17
19553;BME280;9420;50.876;7.012;2023-05-10T06:57:57;100552.75;;;30.49;61.50
19553;BME280;9420;50.876;7.012;2023-05-10T07:00:24;100543.22;;;32.18;58.68
19553;BME280;9420;50.876;7.012;2023-05-10T07:02:53;100548.00;;;32.31;59.23
19553;BME280;9420;50.876;7.012;2023-05-10T07:05:21;100556.16;;;32.74;56.99
19553;BME280;9420;50.876;7.012;2023-05-10T07:07:48;100558.25;;;30.33;61.51
19553;BME280;9420;50.876;7.012;2023-05-10T07:10:15;100559.66;;;30.59;61.36
19553;BME280;9420;50.876;7.012;2023-05-10T07:12:43;100546.47;;;31.84;59.06
19553;BME280;9420;50.876;7.012;2023-05-10T07:15:11;100548.53;;;30.69;60.63
19553;BME280;9420;50.876;7.012;2023-05-10T07:17:38;100543.16;;;31.60;59.01
19553;BME280;9420;50.876;7.012;2023-05-10T07:20:08;100555.66;;;31.31;59.24
19553;BME280;9420;50.876;7.012;2023-05-10T07:22:35;100550.38;;;31.07;60.06
19553;BME280;9420;50.876;7.012;2023-05-10T07:25:03;100565.72;;;31.00;60.31
19553;BME280;9420;50.876;7.012;2023-05-10T07:27:30;100553.13;;;34.65;53.22
19553;BME280;9420;50.876;7.012;2023-05-10T07:29:58;100571.00;;;30.63;60.94
19553;BME280;9420;50.876;7.012;2023-05-10T07:32:26;100565.19;;;30.27;61.47
19553;BME280;9420;50.876;7.012;2023-05-10T07:34:53;100564.50;;;30.72;61.50
19553;BME280;9420;50.876;7.012;2023-05-10T07:37:21;100563.06;;;30.07;63.49
19553;BME280;9420;50.876;7.012;2023-05-10T07:39:48;100545.31;;;34.14;57.02
19553;BME280;9420;50.876;7.012;2023-05-10T07:42:15;100544.38;;;36.33;51.05
19553;BME280;9420;50.876;7.012;2023-05-10T07:44:42;100546.94;;;36.28;51.19
19553;BME280;9420;50.876;7.012;2023-05-10T07:47:09;100550.16;;;35.33;51.73
19553;BME280;9420;50.876;7.012;2023-05-10T07:49:37;100563.31;;;33.53;54.33
19553;BME280;9420;50.876;7.012;2023-05-10T07:52:04;100571.47;;;31.51;56.94
19553;BME280;9420;50.876;7.012;2023-05-10T07:54:32;100550.81;;;34.27;53.00
19553;BME280;9420;50.876;7.012;2023-05-10T07:57:00;100572.88;;;32.86;56.30
19553;BME280;9420;50.876;7.012;2023-05-10T07:59:27;100572.28;;;32.11;57.87
19553;BME280;9420;50.876;7.012;2023-05-10T08:01:54;100575.34;;;31.33;60.66
19553;BME280;9420;50.876;7.012;2023-05-10T08:04:21;100570.13;;;32.21;60.54
19553;BME280;9420;50.876;7.012;2023-05-10T08:06:48;100573.22;;;32.47;59.33
19553;BME280;9420;50.876;7.012;2023-05-10T08:09:16;100570.13;;;32.86;58.76
19553;BME280;9420;50.876;7.012;2023-05-10T08:11:44;100571.31;;;33.55;57.12
19553;BME280;9420;50.876;7.012;2023-05-10T08:14:11;100580.38;;;32.99;56.66
19553;BME280;9420;50.876;7.012;2023-05-10T08:16:38;100582.19;;;33.76;56.50
19553;BME280;9420;50.876;7.012;2023-05-10T08:19:08;100578.84;;;32.17;59.04
19553;BME280;9420;50.876;7.012;2023-05-10T08:21:36;100573.91;;;33.63;55.81
19553;BME280;9420;50.876;7.012;2023-05-10T08:24:03;100567.78;;;33.89;55.75
19553;BME280;9420;50.876;7.012;2023-05-10T08:26:32;100580.13;;;33.15;57.56
19553;BME280;9420;50.876;7.012;2023-05-10T08:29:01;100572.28;;;32.91;58.70
19553;BME280;9420;50.876;7.012;2023-05-10T08:31:28;100573.38;;;34.77;55.31
19553;BME280;9420;50.876;7.012;2023-05-10T08:33:55;100579.47;;;33.13;58.19
19553;BME280;9420;50.876;7.012;2023-05-10T08:36:22;100572.28;;;34.30;56.74
19553;BME280;9420;50.876;7.012;2023-05-10T08:38:50;100575.19;;;34.22;54.96
19553;BME280;9420;50.876;7.012;2023-05-10T08:41:20;100593.53;;;31.93;57.07
19553;BME280;9420;50.876;7.012;2023-05-10T08:43:48;100587.66;;;32.62;56.36
19553;BME280;9420;50.876;7.012;2023-05-10T08:46:18;100588.94;;;31.33;57.78
19553;BME280;9420;50.876;7.012;2023-05-10T08:48:49;100603.16;;;31.66;58.87
19553;BME280;9420;50.876;7.012;2023-05-10T08:51:22;100617.03;;;30.10;62.26
19553;BME280;9420;50.876;7.012;2023-05-10T08:53:50;100621.34;;;30.51;63.86
19553;BME280;9420;50.876;7.012;2023-05-10T08:56:18;100609.81;;;31.18;62.28
19553;BME280;9420;50.876;7.012;2023-05-10T08:58:46;100609.28;;;31.83;62.46
19553;BME280;9420;50.876;7.012;2023-05-10T09:01:19;100614.72;;;30.84;62.83
19553;BME280;9420;50.876;7.012;2023-05-10T09:03:47;100614.44;;;30.79;63.29
19553;BME280;9420;50.876;7.012;2023-05-10T09:06:15;100619.03;;;31.63;61.56
19553;BME280;9420;50.876;7.012;2023-05-10T09:08:43;100616.56;;;31.68;61.32
19553;BME280;9420;50.876;7.012;2023-05-10T09:11:12;100618.59;;;32.69;60.44
19553;BME280;9420;50.876;7.012;2023-05-10T09:13:39;100611.84;;;32.65;60.70
19553;BME280;9420;50.876;7.012;2023-05-10T09:16:07;100619.63;;;32.68;59.79
19553;BME280;9420;50.876;7.012;2023-05-10T09:18:35;100619.06;;;32.73;59.01
19553;BME280;9420;50.876;7.012;2023-05-10T09:21:02;100620.47;;;32.25;60.09
19553;BME280;9420;50.876;7.012;2023-05-10T09:23:29;100618.91;;;32.96;60.25
19553;BME280;9420;50.876;7.012;2023-05-10T09:26:05;100615.94;;;34.17;58.39
19553;BME280;9420;50.876;7.012;2023-05-10T09:28:32;100619.97;;;34.21;58.22
19553;BME280;9420;50.876;7.012;2023-05-10T09:31:00;100624.28;;;34.37;57.90
19553;BME280;9420;50.876;7.012;2023-05-10T09:33:27;100622.63;;;34.15;57.64
19553;BME280;9420;50.876;7.012;2023-05-10T09:36:06;100636.13;;;31.49;59.82
19553;BME280;9420;50.876;7.012;2023-05-10T09:38:46;100632.16;;;32.48;59.95
19553;BME280;9420;50.876;7.012;2023-05-10T09:41:17;100638.81;;;32.75;58.40
19553;BME280;9420;50.876;7.012;2023-05-10T09:43:46;100645.09;;;33.05;59.44
19553;BME280;9420;50.876;7.012;2023-05-10T09:46:13;100645.00;;;31.43;59.79
19553;BME280;9420;50.876;7.012;2023-05-10T09:48:44;100647.44;;;33.29;58.97
19553;BME280;9420;50.876;7.012;2023-05-10T09:51:19;100633.28;;;34.37;56.83
19553;BME280;9420;50.876;7.012;2023-05-10T09:53:47;100647.81;;;34.10;56.24
19553;BME280;9420;50.876;7.012;2023-05-10T09:56:33;100639.69;;;33.47;56.86
19553;BME280;9420;50.876;7.012;2023-05-10T09:59:04;100634.91;;;34.25;55.82
19553;BME280;9420;50.876;7.012;2023-05-10T10:01:32;100642.06;;;33.35;58.37
19553;BME280;9420;50.876;7.012;2023-05-10T10:04:03;100640.91;;;33.44;58.62
19553;BME280;9420;50.876;7.012;2023-05-10T10:06:37;100651.28;;;33.13;57.69
19553;BME280;9420;50.876;7.012;2023-05-10T10:09:05;100661.91;;;34.07;58.07
19553;BME280;9420;50.876;7.012;2023-05-10T10:11:35;100661.00;;;33.37;58.40
19553;BME280;9420;50.876;7.012;2023-05-10T10:14:03;100655.59;;;33.86;58.10
19553;BME280;9420;50.876;7.012;2023-05-10T10:16:31;100646.97;;;34.37;56.41
19553;BME280;9420;50.876;7.012;2023-05-10T10:18:59;100655.63;;;32.49;58.72
19553;BME280;9420;50.876;7.012;2023-05-10T10:21:26;100647.94;;;34.23;57.02
19553;BME280;9420;50.876;7.012;2023-05-10T10:23:54;100652.81;;;34.00;55.47
19553;BME280;9420;50.876;7.012;2023-05-10T10:26:22;100650.91;;;33.02;57.14
19553;BME280;9420;50.876;7.012;2023-05-10T10:29:07;100646.69;;;34.54;54.67
19553;BME280;9420;50.876;7.012;2023-05-10T10:31:41;100652.72;;;32.80;55.12
19553;BME280;9420;50.876;7.012;2023-05-10T10:34:25;100653.59;;;33.52;54.87
19553;BME280;9420;50.876;7.012;2023-05-10T10:36:55;100656.94;;;32.82;55.20
19553;BME280;9420;50.876;7.012;2023-05-10T10:39:24;100654.53;;;33.59;54.97
19553;BME280;9420;50.876;7.012;2023-05-10T10:41:54;100654.47;;;34.22;52.79
19553;BME280;9420;50.876;7.012;2023-05-10T10:44:36;100659.28;;;31.90;55.88
19553;BME280;9420;50.876;7.012;2023-05-10T10:47:23;100662.72;;;31.61;55.99
19553;BME280;9420;50.876;7.012;2023-05-10T10:50:04;100655.41;;;34.42;52.18
19553;BME280;9420;50.876;7.012;2023-05-10T10:52:34;100657.34;;;33.93;51.95
19553;BME280;9420;50.876;7.012;2023-05-10T10:55:06;100661.56;;;33.96;52.86
19553;BME280;9420;50.876;7.012;2023-05-10T10:57:43;100664.44;;;34.36;52.61
19553;BME280;9420;50.876;7.012;2023-05-10T11:00:28;100659.31;;;33.78;51.59
19553;BME280;9420;50.876;7.012;2023-05-10T11:02:58;100665.81;;;32.03;53.90
19553;BME280;9420;50.876;7.012;2023-05-10T11:05:41;100674.97;;;32.25;52.78
19553;BME280;9420;50.876;7.012;2023-05-10T11:08:26;100668.59;;;33.84;52.97
19553;BME280;9420;50.876;7.012;2023-05-10T11:11:05;100675.50;;;33.23;53.24
19553;BME280;9420;50.876;7.012;2023-05-10T11:13:41;100676.97;;;31.94;54.33
19553;BME280;9420;50.876;7.012;2023-05-10T11:16:14;100671.69;;;32.30;53.37
19553;BME280;9420;50.876;7.012;2023-05-10T11:18:53;100671.06;;;32.71;52.64
19553;BME280;9420;50.876;7.012;2023-05-10T11:21:21;100678.19;;;32.72;53.20
19553;BME280;9420;50.876;7.012;2023-05-10T11:23:50;100672.66;;;32.51;54.32
19553;BME280;9420;50.876;7.012;2023-05-10T11:26:19;100691.53;;;31.25;55.21
19553;BME280;9420;50.876;7.012;2023-05-10T11:28:49;100685.53;;;31.29;54.83
19553;BME280;9420;50.876;7.012;2023-05-10T11:31:18;100678.38;;;31.82;54.57
19553;BME280;9420;50.876;7.012;2023-05-10T11:33:48;100687.66;;;32.91;53.43
19553;BME280;9420;50.876;7.012;2023-05-10T11:36:17;100689.34;;;32.19;54.11
19553;BME280;9420;50.876;7.012;2023-05-10T11:38:44;100695.03;;;31.42;55.11
19553;BME280;9420;50.876;7.012;2023-05-10T11:41:13;100692.69;;;31.30;54.72
19553;BME280;9420;50.876;7.012;2023-05-10T11:43:42;100693.63;;;32.51;53.80
19553;BME280;9420;50.876;7.012;2023-05-10T11:46:12;100689.91;;;34.71;51.14
19553;BME280;9420;50.876;7.012;2023-05-10T11:48:40;100692.22;;;30.80;54.18
19553;BME280;9420;50.876;7.012;2023-05-10T11:51:09;100687.19;;;31.38;54.50
19553;BME280;9420;50.876;7.012;2023-05-10T11:53:36;100687.53;;;32.49;52.85
19553;BME280;9420;50.876;7.012;2023-05-10T11:56:05;100692.31;;;32.47;52.22
19553;BME280;9420;50.876;7.012;2023-05-10T11:58:33;100691.47;;;32.09;51.96
19553;BME280;9420;50.876;7.012;2023-05-10T12:01:02;100692.78;;;32.50;52.29
19553;BME280;9420;50.876;7.012;2023-05-10T12:03:30;100687.91;;;34.24;50.27
19553;BME280;9420;50.876;7.012;2023-05-10T12:06:00;100676.34;;;34.57;48.63
19553;BME280;9420;50.876;7.012;2023-05-10T12:08:29;100689.56;;;34.25;51.16
19553;BME280;9420;50.876;7.012;2023-05-10T12:11:07;100686.16;;;36.00;47.68
19553;BME280;9420;50.876;7.012;2023-05-10T12:13:38;100692.50;;;34.86;48.88
19553;BME280;9420;50.876;7.012;2023-05-10T12:16:16;100685.88;;;35.55;47.22
19553;BME280;9420;50.876;7.012;2023-05-10T12:18:44;100692.75;;;33.59;49.16
19553;BME280;9420;50.876;7.012;2023-05-10T12:21:12;100686.75;;;34.68;47.11
19553;BME280;9420;50.876;7.012;2023-05-10T12:23:40;100697.94;;;34.73;48.97
19553;BME280;9420;50.876;7.012;2023-05-10T12:26:09;100680.59;;;36.78;45.11
19553;BME280;9420;50.876;7.012;2023-05-10T12:28:37;100684.66;;;36.43;45.39
19553;BME280;9420;50.876;7.012;2023-05-10T12:31:06;100688.81;;;37.35;42.75
19553;BME280;9420;50.876;7.012;2023-05-10T12:33:41;100690.56;;;35.14;46.17
19553;BME280;9420;50.876;7.012;2023-05-10T12:36:09;100684.69;;;35.17;47.01
19553;BME280;9420;50.876;7.012;2023-05-10T12:38:38;100689.69;;;35.93;46.18
19553;BME280;9420;50.876;7.012;2023-05-10T12:41:08;100690.28;;;35.50;46.02
19553;BME280;9420;50.876;7.012;2023-05-10T12:43:36;100695.41;;;36.12;44.84
19553;BME280;9420;50.876;7.012;2023-05-10T12:46:08;100690.59;;;37.10;43.16
19553;BME280;9420;50.876;7.012;2023-05-10T12:48:38;100693.75;;;36.24;44.28
19553;BME280;9420;50.876;7.012;2023-05-10T12:51:07;100698.22;;;37.08;43.52
19553;BME280;9420;50.876;7.012;2023-05-10T12:53:35;100694.75;;;36.62;43.08
19553;BME280;9420;50.876;7.012;2023-05-10T12:56:02;100711.28;;;34.33;43.69
19553;BME280;9420;50.876;7.012;2023-05-10T12:58:29;100692.50;;;38.41;41.70
19553;BME280;9420;50.876;7.012;2023-05-10T13:00:57;100688.66;;;37.93;40.31
19553;BME280;9420;50.876;7.012;2023-05-10T13:03:24;100686.19;;;40.37;38.15
19553;BME280;9420;50.876;7.012;2023-05-10T13:05:53;100690.88;;;40.13;37.55
19553;BME280;9420;50.876;7.012;2023-05-10T13:08:20;100679.34;;;41.37;37.06
19553;BME280;9420;50.876;7.012;2023-05-10T13:10:47;100685.69;;;39.34;38.67
19553;BME280;9420;50.876;7.012;2023-05-10T13:13:16;100690.53;;;39.80;38.51
19553;BME280;9420;50.876;7.012;2023-05-10T13:15:43;100694.88;;;37.82;39.15
19553;BME280;9420;50.876;7.012;2023-05-10T13:18:10;100685.59;;;38.32;38.60
19553;BME280;9420;50.876;7.012;2023-05-10T13:20:38;100695.78;;;36.74;39.72